createdAt,value
2019-01-18T00:02:11.312Z,94501.75
2019-01-18T00:04:40.809Z,94505.89
2019-01-18T00:07:10.291Z,94499.24
2019-01-18T00:09:39.870Z,94495.42
2019-01-18T00:12:09.348Z,94498.68
2019-01-18T00:14:39.271Z,94503.59
2019-01-18T00:17:08.784Z,94498.14
2019-01-18T00:19:38.295Z,94501.75
2019-01-18T00:22:07.778Z,94507.76
2019-01-18T00:24:37.283Z,94514.00
2019-01-18T00:27:07.346Z,94510.55
2019-01-18T00:29:36.851Z,94511.38
2019-01-18T00:32:06.332Z,94507.76
2019-01-18T00:34:36.086Z,94509.00
2019-01-18T00:37:06.759Z,94504.68
2019-01-18T00:39:36.304Z,94514.38
2019-01-18T00:42:05.943Z,94508.50
2019-01-18T00:44:35.441Z,94512.94
2019-01-18T00:47:04.993Z,94506.55
2019-01-18T00:49:34.508Z,94510.75
2019-01-18T00:52:04.599Z,94511.35
2019-01-18T00:54:34.101Z,94518.38
2019-01-18T00:57:03.584Z,94508.85
2019-01-18T00:59:36.383Z,94508.73
2019-01-18T01:02:04.372Z,94520.50
2019-01-18T01:04:33.889Z,94520.50
2019-01-18T01:07:03.441Z,94517.78
2019-01-18T01:09:32.949Z,94524.47
2019-01-18T01:12:02.561Z,94517.52
2019-01-18T01:14:32.134Z,94524.27
2019-01-18T01:17:01.684Z,94522.95
2019-01-18T01:19:31.184Z,94522.69
2019-01-18T01:22:00.666Z,94525.22
2019-01-18T01:24:30.301Z,94526.50
2019-01-18T01:26:59.923Z,94527.46
2019-01-18T01:29:29.427Z,94524.47
2019-01-18T01:31:58.991Z,94529.43
2019-01-18T01:34:28.551Z,94532.10
2019-01-18T01:36:58.037Z,94533.94
2019-01-18T01:39:27.540Z,94538.15
2019-01-18T01:41:57.085Z,94552.23
2019-01-18T01:44:26.588Z,94569.77
2019-01-18T01:46:56.071Z,94578.36
2019-01-18T01:49:25.573Z,94590.77
2019-01-18T01:51:55.146Z,94585.89
2019-01-18T01:54:24.623Z,94598.05
2019-01-18T01:56:54.105Z,94597.03
2019-01-18T01:59:23.631Z,94595.16
2019-01-18T02:01:53.129Z,94600.59
2019-01-18T02:04:22.621Z,94609.05
2019-01-18T02:06:52.140Z,94608.98
2019-01-18T02:09:21.658Z,94626.45
2019-01-18T02:11:51.148Z,94620.36
2019-01-18T02:14:20.767Z,94623.17
2019-01-18T02:16:50.277Z,94622.71
2019-01-18T02:19:19.776Z,94630.91
2019-01-18T02:21:49.294Z,94638.98
2019-01-18T02:24:18.806Z,94645.09
2019-01-18T02:26:48.329Z,94645.68
2019-01-18T02:29:17.843Z,94651.91
2019-01-18T02:31:47.360Z,94649.78
2019-01-18T02:34:16.852Z,94646.28
2019-01-18T02:36:46.429Z,94637.13
2019-01-18T02:39:15.924Z,94635.23
2019-01-18T02:41:45.443Z,94639.11
2019-01-18T02:44:14.953Z,94636.66
2019-01-18T02:46:45.719Z,94646.37
2019-01-18T02:49:15.211Z,94636.19
2019-01-18T02:51:44.731Z,94634.89
2019-01-18T02:54:14.240Z,94635.35
2019-01-18T02:56:43.765Z,94637.58
2019-01-18T02:59:14.337Z,94637.58
2019-01-18T03:01:43.942Z,94639.34
2019-01-18T03:04:15.149Z,94647.07
2019-01-18T03:06:44.751Z,94657.16
2019-01-18T03:09:14.287Z,94656.59
2019-01-18T03:11:43.799Z,94655.41
2019-01-18T03:14:13.294Z,94664.42
2019-01-18T03:16:42.828Z,94668.89
2019-01-18T03:19:12.327Z,94664.55
2019-01-18T03:21:41.836Z,94670.28
2019-01-18T03:24:11.865Z,94670.54
2019-01-18T03:26:41.416Z,94667.59
2019-01-18T03:29:10.925Z,94676.39
2019-01-18T03:31:40.450Z,94677.31
2019-01-18T03:34:09.950Z,94685.29
2019-01-18T03:36:40.201Z,94680.27
2019-01-18T03:39:10.282Z,94688.46
2019-01-18T03:41:39.861Z,94692.09
2019-01-18T03:44:09.432Z,94696.66
2019-01-18T03:46:39.000Z,94708.03
2019-01-18T03:49:08.763Z,94712.27
2019-01-18T03:51:38.272Z,94712.50
2019-01-18T03:54:07.768Z,94713.89
2019-01-18T03:56:37.283Z,94717.89
2019-01-18T03:59:06.779Z,94724.33
2019-01-18T04:01:36.587Z,94729.58
2019-01-18T04:04:06.149Z,94731.47
2019-01-18T04:06:35.669Z,94734.95
2019-01-18T04:09:07.251Z,94738.74
2019-01-18T04:11:36.757Z,94746.23
2019-01-18T04:14:06.473Z,94743.98
2019-01-18T04:16:36.246Z,94738.74
2019-01-18T04:19:05.739Z,94744.13
2019-01-18T04:21:35.257Z,94744.45
2019-01-18T04:24:05.090Z,94752.90
2019-01-18T04:26:34.644Z,94755.13
2019-01-18T04:29:04.156Z,94764.75
2019-01-18T04:31:33.730Z,94761.25
2019-01-18T04:34:03.230Z,94766.37
2019-01-18T04:36:32.737Z,94763.69
2019-01-18T04:39:02.294Z,94770.14
2019-01-18T04:41:31.797Z,94784.74
2019-01-18T04:44:01.283Z,94792.05
2019-01-18T04:46:30.848Z,94792.73
2019-01-18T04:49:00.340Z,94798.65
2019-01-18T04:51:29.858Z,94805.66
2019-01-18T04:53:59.350Z,94804.11
2019-01-18T04:56:28.839Z,94814.02
2019-01-18T04:58:58.340Z,94814.94
2019-01-18T05:01:27.871Z,94814.78
2019-01-18T05:03:57.383Z,94808.89
2019-01-18T05:06:26.892Z,94825.23
2019-01-18T05:08:56.390Z,94832.91
2019-01-18T05:11:25.895Z,94829.59
2019-01-18T05:13:55.402Z,94835.69
2019-01-18T05:16:25.167Z,94841.45
2019-01-18T05:18:54.711Z,94849.02
2019-01-18T05:21:24.144Z,94858.03
2019-01-18T05:23:53.660Z,94853.38
2019-01-18T05:26:23.176Z,94858.27
2019-01-18T05:28:52.707Z,94864.11
2019-01-18T05:31:23.237Z,94865.33
2019-01-18T05:33:52.819Z,94878.87
2019-01-18T05:36:22.315Z,94872.59
2019-01-18T05:38:51.821Z,94882.58
2019-01-18T05:41:21.313Z,94878.83
2019-01-18T05:43:51.505Z,94884.70
2019-01-18T05:46:21.006Z,94888.18
2019-01-18T05:48:50.526Z,94894.38
2019-01-18T05:51:20.009Z,94893.09
2019-01-18T05:53:49.532Z,94900.55
2019-01-18T05:56:19.781Z,94904.80
2019-01-18T05:58:49.292Z,94901.00
2019-01-18T06:01:18.784Z,94906.52
2019-01-18T06:03:48.294Z,94908.37
2019-01-18T06:06:17.808Z,94911.33
2019-01-18T06:08:48.067Z,94917.37
2019-01-18T06:11:17.550Z,94924.57
2019-01-18T06:13:47.036Z,94928.80
2019-01-18T06:16:16.542Z,94931.33
2019-01-18T06:18:46.092Z,94933.91
2019-01-18T06:21:16.248Z,94938.91
2019-01-18T06:23:45.732Z,94934.89
2019-01-18T06:26:15.295Z,94948.05
2019-01-18T06:28:44.810Z,94942.99
2019-01-18T06:31:14.319Z,94948.23
2019-01-18T06:33:44.621Z,94951.24
2019-01-18T06:36:14.115Z,94962.75
2019-01-18T06:38:43.680Z,94963.27
2019-01-18T06:41:14.815Z,94970.33
2019-01-18T06:43:44.325Z,94969.47
2019-01-18T06:46:13.888Z,94976.38
2019-01-18T06:48:44.103Z,94977.17
2019-01-18T06:51:13.653Z,94976.36
2019-01-18T06:53:43.166Z,94988.03
2019-01-18T06:56:12.675Z,94991.59
2019-01-18T06:58:42.185Z,94991.55
2019-01-18T07:01:11.690Z,94997.13
2019-01-18T07:03:41.193Z,95005.40
2019-01-18T07:06:10.763Z,95008.98
2019-01-18T07:08:40.259Z,95012.69
2019-01-18T07:11:09.751Z,95021.24
2019-01-18T07:13:39.260Z,95025.69
2019-01-18T07:16:08.908Z,95026.14
2019-01-18T07:18:38.490Z,95034.70
2019-01-18T07:21:08.069Z,95040.86
2019-01-18T07:23:37.577Z,95039.28
2019-01-18T07:26:07.071Z,95043.61
2019-01-18T07:28:36.674Z,95041.14
2019-01-18T07:31:06.169Z,95045.47
2019-01-18T07:33:35.671Z,95039.65
2019-01-18T07:36:06.485Z,95037.03
2019-01-18T07:38:36.000Z,95050.20
2019-01-18T07:41:05.553Z,95050.41
2019-01-18T07:43:35.110Z,95056.03
2019-01-18T07:49:24.737Z,95053.82
2019-01-18T07:51:54.243Z,95058.21
2019-01-18T07:54:23.755Z,95062.84
2019-01-18T07:56:53.245Z,95066.25
2019-01-18T07:59:22.751Z,95062.93
2019-01-18T08:01:52.243Z,95063.80
2019-01-18T08:04:21.763Z,95075.56
2019-01-18T08:06:51.260Z,95073.31
2019-01-18T08:09:20.909Z,95077.58
2019-01-18T08:11:50.421Z,95078.13
2019-01-18T08:14:19.950Z,95075.30
2019-01-18T08:16:49.445Z,95076.90
2019-01-18T08:19:18.950Z,95079.17
2019-01-18T08:21:48.528Z,95083.26
2019-01-18T08:24:18.043Z,95088.22
2019-01-18T08:26:47.537Z,95090.69
2019-01-18T08:29:17.050Z,95088.58
2019-01-18T08:31:47.518Z,95094.08
2019-01-18T08:34:17.029Z,95094.77
2019-01-18T08:36:46.523Z,95097.56
2019-01-18T08:39:16.028Z,95098.09
2019-01-18T08:41:45.510Z,95098.77
2019-01-18T08:44:15.660Z,95100.04
2019-01-18T08:46:45.147Z,95101.78
2019-01-18T08:49:14.655Z,95098.59
2019-01-18T08:51:44.137Z,95102.19
2019-01-18T08:54:13.681Z,95105.25
2019-01-18T08:56:43.785Z,95106.03
2019-01-18T08:59:13.286Z,95100.64
2019-01-18T09:01:42.771Z,95103.94
2019-01-18T09:04:12.272Z,95110.41
2019-01-18T09:06:41.751Z,95116.00
2019-01-18T09:09:11.933Z,95120.38
2019-01-18T09:11:41.460Z,95120.09
2019-01-18T09:14:10.956Z,95116.23
2019-01-18T09:16:40.436Z,95120.22
2019-01-18T09:19:09.936Z,95127.95
2019-01-18T09:21:40.044Z,95131.97
2019-01-18T09:24:09.616Z,95135.78
2019-01-18T09:26:39.074Z,95127.47
2019-01-18T09:29:08.620Z,95138.84
2019-01-18T09:31:42.463Z,95138.81
2019-01-18T09:34:09.505Z,95142.67
2019-01-18T09:36:39.064Z,95146.23
2019-01-18T09:39:08.813Z,95150.01
2019-01-18T09:41:38.318Z,95141.64
2019-01-18T09:44:07.794Z,95150.85
2019-01-18T09:46:37.296Z,95156.31
2019-01-18T09:49:06.847Z,95157.09
2019-01-18T09:51:36.290Z,95151.60
2019-01-18T09:54:05.860Z,95152.04
2019-01-18T09:56:35.346Z,95148.27
2019-01-18T09:59:04.919Z,95156.06
2019-01-18T10:01:35.352Z,95155.69
2019-01-18T10:04:04.971Z,95154.16
2019-01-18T10:06:34.452Z,95148.14
2019-01-18T10:09:07.260Z,95143.33
2019-01-18T10:11:36.845Z,95143.09
2019-01-18T10:14:06.402Z,95146.61
2019-01-18T10:16:35.912Z,95148.83
2019-01-18T10:19:05.464Z,95141.57
2019-01-18T10:21:35.007Z,95138.86
2019-01-18T10:24:04.567Z,95134.53
2019-01-18T10:26:34.572Z,95130.78
2019-01-18T10:29:04.060Z,95131.55
2019-01-18T10:31:33.564Z,95125.67
2019-01-18T10:34:03.124Z,95125.30
2019-01-18T10:36:32.627Z,95123.53
2019-01-18T10:39:04.639Z,95131.36
2019-01-18T10:41:34.177Z,95120.86
2019-01-18T10:44:06.141Z,95120.79
2019-01-18T10:46:34.887Z,95130.70
2019-01-18T10:49:04.574Z,95127.39
2019-01-18T10:51:34.078Z,95129.19
2019-01-18T10:54:03.564Z,95120.41
2019-01-18T10:56:33.060Z,95121.93
2019-01-18T10:59:02.638Z,95116.75
2019-01-18T11:01:32.117Z,95127.98
2019-01-18T11:04:01.626Z,95123.11
2019-01-18T11:06:32.359Z,95121.41
2019-01-18T11:09:01.845Z,95120.86
2019-01-18T11:11:31.411Z,95117.36
2019-01-18T11:14:00.884Z,95117.16
2019-01-18T11:16:30.456Z,95112.05
2019-01-18T11:19:00.861Z,95113.03
2019-01-18T11:21:30.352Z,95111.61
2019-01-18T11:23:59.854Z,95109.30
2019-01-18T11:26:29.355Z,95098.88
2019-01-18T11:28:58.841Z,95093.97
2019-01-18T11:31:28.922Z,95091.08
2019-01-18T11:33:58.398Z,95086.88
2019-01-18T11:36:27.901Z,95081.11
2019-01-18T11:38:57.384Z,95080.91
2019-01-18T11:41:26.887Z,95082.59
2019-01-18T11:43:56.975Z,95083.91
2019-01-18T11:46:26.473Z,95078.95
2019-01-18T11:52:03.814Z,95069.96
2019-01-18T11:54:33.297Z,95071.52
2019-01-18T11:57:02.848Z,95063.69
2019-01-18T11:59:32.377Z,95063.77
2019-01-18T12:02:01.859Z,95057.30
2019-01-18T12:04:31.343Z,95058.61
2019-01-18T12:07:20.196Z,95051.59
2019-01-18T12:10:29.634Z,94941.94
2019-01-18T12:12:59.183Z,95045.41
2019-01-18T12:15:28.876Z,95046.27
2019-01-18T12:17:58.364Z,95045.25
2019-01-18T12:20:34.043Z,95048.71
2019-01-18T12:23:03.958Z,95057.33
2019-01-18T12:25:33.966Z,95053.33
2019-01-18T12:28:03.449Z,95059.82
2019-01-18T12:30:34.384Z,95053.41
2019-01-18T12:33:04.096Z,95053.39
2019-01-18T12:35:33.748Z,95060.86
2019-01-18T12:38:03.251Z,95059.61
2019-01-18T12:40:32.806Z,95054.13
2019-01-18T12:43:02.363Z,95053.83
2019-01-18T12:45:31.940Z,95046.95
2019-01-18T12:48:01.378Z,95049.95
2019-01-18T12:50:33.981Z,95047.01
2019-01-18T12:53:03.634Z,95043.94
2019-01-18T12:55:33.176Z,95043.28
2019-01-18T12:58:02.827Z,95043.47
2019-01-18T13:00:32.794Z,95046.28
2019-01-18T13:03:02.448Z,95049.19
2019-01-18T13:05:43.188Z,95048.41
2019-01-18T13:08:12.679Z,95047.19
2019-01-18T13:10:42.151Z,95046.56
2019-01-18T13:13:11.817Z,95051.81
2019-01-18T13:15:54.422Z,95049.69
2019-01-18T13:18:23.901Z,95049.45
2019-01-18T13:20:53.488Z,95044.25
2019-01-18T13:23:22.968Z,95047.83
2019-01-18T13:25:52.520Z,95045.94
2019-01-18T13:28:22.090Z,95043.38
2019-01-18T13:30:51.593Z,95032.47
2019-01-18T13:33:21.198Z,95026.56
2019-01-18T13:35:50.671Z,95031.69
2019-01-18T13:38:20.159Z,95024.66
2019-01-18T13:40:49.733Z,95024.09
2019-01-18T13:43:21.533Z,95023.93
2019-01-18T13:45:51.072Z,95022.02
2019-01-18T13:48:20.685Z,95022.64
2019-01-18T13:50:50.177Z,95021.65
2019-01-18T13:53:19.688Z,95025.45
2019-01-18T13:55:49.341Z,95013.53
2019-01-18T13:58:18.873Z,95017.39
2019-01-18T14:00:48.358Z,95019.85
2019-01-18T14:03:17.972Z,95019.82
2019-01-18T14:05:47.489Z,95024.32
2019-01-18T14:08:17.945Z,95028.20
2019-01-18T14:10:47.493Z,95034.53
2019-01-18T14:13:17.095Z,95040.21
2019-01-18T14:15:47.249Z,95042.39
2019-01-18T14:18:16.759Z,95045.16
2019-01-18T14:20:46.296Z,95048.15
2019-01-18T14:23:15.840Z,95055.95
2019-01-18T14:25:45.369Z,95054.55
2019-01-18T14:28:14.872Z,95056.32
2019-01-18T14:30:44.432Z,95065.69
2019-01-18T14:33:14.138Z,95061.42
2019-01-18T14:35:43.674Z,95058.77
2019-01-18T14:38:13.285Z,95057.48
2019-01-18T14:40:42.824Z,95056.88
2019-01-18T14:43:12.332Z,95058.99
2019-01-18T14:45:44.129Z,95058.66
2019-01-18T14:48:13.780Z,95061.97
2019-01-18T14:50:43.509Z,95066.19
2019-01-18T14:53:13.029Z,95061.94
2019-01-18T14:55:42.558Z,95070.29
2019-01-18T14:58:12.193Z,95072.96
2019-01-18T15:00:41.797Z,95067.33
2019-01-18T15:03:11.791Z,95067.39
2019-01-18T15:05:41.279Z,95067.63
2019-01-18T15:08:10.870Z,95070.95
2019-01-18T15:10:40.480Z,95067.20
2019-01-18T15:13:13.558Z,95065.73
2019-01-18T15:15:43.225Z,95070.61
2019-01-18T15:18:12.814Z,95069.85
2019-01-18T15:20:42.445Z,95068.05
2019-01-18T15:23:12.126Z,95064.83
2019-01-18T15:25:41.634Z,95068.30
2019-01-18T15:28:11.226Z,95070.20
2019-01-18T15:30:40.720Z,95072.47
2019-01-18T15:33:10.319Z,95073.97
2019-01-18T15:35:39.872Z,95069.81
2019-01-18T15:38:09.502Z,95071.33
2019-01-18T15:40:43.018Z,95076.69
2019-01-18T15:43:14.153Z,95075.41
2019-01-18T15:45:43.739Z,95080.72
2019-01-18T15:48:13.365Z,95077.38
2019-01-18T15:50:42.960Z,95079.99
2019-01-18T15:53:12.489Z,95072.37
2019-01-18T15:55:43.260Z,95076.46
2019-01-18T15:58:12.797Z,95074.66
2019-01-18T16:00:43.602Z,95080.59
2019-01-18T16:03:16.064Z,95080.81
2019-01-18T16:05:45.061Z,95079.19
2019-01-18T16:08:14.613Z,95082.41
2019-01-18T16:10:44.106Z,95081.45
2019-01-18T16:13:13.841Z,95074.96
2019-01-18T16:15:50.772Z,95079.10
2019-01-18T16:18:24.014Z,95074.72
2019-01-18T16:20:53.696Z,95078.59
2019-01-18T16:23:23.192Z,95075.94
2019-01-18T16:25:52.765Z,95081.04
2019-01-18T16:28:22.370Z,95080.70
2019-01-18T16:30:51.858Z,95076.85
2019-01-18T16:33:23.492Z,95081.66
2019-01-18T16:35:53.316Z,95083.22
2019-01-18T16:38:22.802Z,95081.14
2019-01-18T16:40:53.653Z,95079.80
2019-01-18T16:43:30.184Z,95075.38
2019-01-18T16:45:59.735Z,95081.04
2019-01-18T16:48:29.295Z,95074.98
2019-01-18T16:50:58.839Z,95073.45
2019-01-18T16:53:28.621Z,95076.59
2019-01-18T16:55:58.106Z,95073.76
2019-01-18T16:58:27.595Z,95077.80
2019-01-18T17:01:01.135Z,95078.14
2019-01-18T17:03:30.979Z,95079.28
2019-01-18T17:06:00.473Z,95075.50
2019-01-18T17:08:29.964Z,95082.00
2019-01-18T17:10:59.567Z,95082.95
2019-01-18T17:13:29.127Z,95082.31
2019-01-18T17:15:58.728Z,95079.59
2019-01-18T17:18:28.490Z,95076.50
2019-01-18T17:20:58.200Z,95080.36
2019-01-18T17:23:27.701Z,95083.92
2019-01-18T17:25:57.243Z,95080.48
2019-01-18T17:28:26.803Z,95077.16
2019-01-18T17:30:56.291Z,95079.38
2019-01-18T17:33:25.898Z,95081.80
2019-01-18T17:36:09.412Z,95079.84
2019-01-18T17:39:13.532Z,95086.64
2019-01-18T17:41:56.136Z,95084.80
2019-01-18T17:45:01.295Z,95086.80
2019-01-18T17:48:09.800Z,95083.58
2019-01-18T17:51:08.922Z,95078.52
2019-01-18T17:54:02.579Z,95080.22
2019-01-18T17:56:51.211Z,95080.59
2019-01-18T17:59:41.585Z,95078.55
2019-01-18T18:02:35.232Z,95081.16
2019-01-18T18:05:30.457Z,95082.17
2019-01-18T18:08:13.162Z,95083.83
2019-01-18T18:11:09.908Z,95082.98
2019-01-18T18:14:25.839Z,95081.27
2019-01-18T18:17:23.859Z,95084.53
2019-01-18T18:20:33.551Z,95081.28
2019-01-18T18:23:37.660Z,95077.49
2019-01-18T18:26:14.602Z,95075.64
2019-01-18T18:29:11.295Z,95077.19
2019-01-18T18:32:11.835Z,95077.89
2019-01-18T18:35:00.927Z,95076.63
2019-01-18T18:38:18.079Z,95081.16
2019-01-18T18:41:08.754Z,95073.33
2019-01-18T18:43:58.069Z,95079.15
2019-01-18T18:46:57.476Z,95077.51
2019-01-18T18:49:58.494Z,95080.09
2019-01-18T18:52:40.592Z,95073.02
2019-01-18T18:55:17.306Z,95067.85
2019-01-18T18:58:00.143Z,95066.86
2019-01-18T19:00:52.254Z,95067.23
2019-01-18T19:03:57.511Z,95067.42
2019-01-18T19:07:07.576Z,95061.28
2019-01-18T19:09:58.081Z,95062.09
2019-01-18T19:12:46.183Z,95061.91
2019-01-18T19:15:49.829Z,95061.28
2019-01-18T19:18:56.958Z,95058.51
2019-01-18T19:21:47.098Z,95045.41
2019-01-18T19:24:42.043Z,95047.96
2019-01-18T19:27:30.995Z,95056.06
2019-01-18T19:30:36.451Z,95058.34
2019-01-18T19:33:25.597Z,95055.59
2019-01-18T19:36:19.879Z,95056.06
2019-01-18T19:38:54.098Z,95054.03
2019-01-18T19:41:39.739Z,95050.72
2019-01-18T19:44:37.580Z,95051.19
2019-01-18T19:47:11.750Z,95047.62
2019-01-18T19:49:51.905Z,95046.44
2019-01-18T19:52:44.128Z,95044.38
2019-01-18T19:55:30.113Z,95043.59
2019-01-18T19:58:12.202Z,95040.92
2019-01-18T20:01:16.306Z,95043.48
2019-01-18T20:03:58.986Z,95038.91
2019-01-18T20:06:55.780Z,95034.78
2019-01-18T20:09:53.646Z,95029.81
2019-01-18T20:12:54.570Z,95026.14
2019-01-18T20:15:34.383Z,95021.85
2019-01-18T20:18:32.259Z,95026.16
2019-01-18T20:21:21.249Z,95021.41
2019-01-18T20:24:03.953Z,95019.83
2019-01-18T20:27:31.499Z,95019.82
2019-01-18T20:30:11.175Z,94998.19
2019-01-18T20:33:02.931Z,95019.35
2019-01-18T20:35:42.774Z,95003.22
2019-01-18T20:38:25.665Z,95009.27
2019-01-18T20:41:27.996Z,95010.12
2019-01-18T20:44:16.953Z,95010.28
2019-01-18T20:47:31.697Z,95003.86
2019-01-18T20:50:20.061Z,95001.83
2019-01-18T20:53:00.365Z,95000.39
2019-01-18T20:55:43.173Z,95008.22
2019-01-18T20:58:23.345Z,95011.16
2019-01-18T21:01:14.037Z,95009.91
2019-01-18T21:04:05.993Z,95004.85
2019-01-18T21:06:43.000Z,95001.94
2019-01-18T21:09:28.907Z,94997.97
2019-01-18T21:12:08.491Z,94996.42
2019-01-18T21:15:12.571Z,94993.24
2019-01-18T21:18:13.359Z,94987.09
2019-01-18T21:20:53.377Z,94984.25
2019-01-18T21:23:54.332Z,94990.72
2019-01-18T21:26:40.108Z,94985.96
2019-01-18T21:29:36.801Z,94990.11
2019-01-18T21:32:22.338Z,94991.23
2019-01-18T21:35:11.070Z,94986.36
2019-01-18T21:38:27.288Z,94989.01
2019-01-18T21:41:19.268Z,94990.30
2019-01-18T21:44:09.958Z,94992.53
2019-01-18T21:46:44.559Z,94984.70
2019-01-18T21:49:24.678Z,94989.86
2019-01-18T21:52:25.862Z,94983.69
2019-01-18T21:55:19.183Z,94982.78
2019-01-18T21:57:56.071Z,94979.77
2019-01-18T22:00:52.677Z,94983.00
2019-01-18T22:03:41.515Z,94976.94
2019-01-18T22:06:36.584Z,94979.22
2019-01-18T22:09:13.309Z,94975.93
2019-01-18T22:11:47.535Z,94969.15
2019-01-18T22:15:03.362Z,94970.05
2019-01-18T22:17:46.287Z,94966.75
2019-01-18T22:20:23.056Z,94964.19
2019-01-18T22:23:14.727Z,94961.80
2019-01-18T22:26:00.036Z,94961.35
2019-01-18T22:28:48.358Z,94961.27
2019-01-18T22:31:57.394Z,94959.23
2019-01-18T22:34:49.359Z,94963.45
2019-01-18T22:37:54.707Z,94961.72
2019-01-18T22:40:55.504Z,94965.28
2019-01-18T22:44:02.351Z,94958.98
2019-01-18T22:47:10.450Z,94956.88
2019-01-18T22:50:09.570Z,94959.69
2019-01-18T22:53:18.043Z,94956.69
2019-01-18T22:55:58.004Z,94948.59
2019-01-18T22:58:34.623Z,94951.70
2019-01-18T23:01:37.244Z,94946.05
2019-01-18T23:04:43.867Z,94942.18
2019-01-18T23:07:47.692Z,94937.53
2019-01-18T23:10:51.294Z,94937.52
2019-01-18T23:13:40.184Z,94928.08
2019-01-18T23:16:38.015Z,94929.91
2019-01-18T23:19:17.613Z,94919.19
2019-01-18T23:22:08.034Z,94919.39
2019-01-18T23:24:44.765Z,94921.48
2019-01-18T23:28:04.691Z,94921.58
2019-01-18T23:31:03.117Z,94910.69
2019-01-18T23:33:43.151Z,94904.36
2019-01-18T23:36:31.677Z,94891.91
2019-01-18T23:39:31.112Z,94894.64
2019-01-18T23:42:25.321Z,94895.49
2019-01-18T23:45:02.397Z,94890.44
2019-01-18T23:47:44.994Z,94877.17
2019-01-18T23:50:39.900Z,94876.42
2019-01-18T23:53:22.888Z,94871.02
2019-01-18T23:56:28.824Z,94874.59
2019-01-18T23:59:17.805Z,94873.40
